N987SK -PAMR

Flight info

Callsign N987SK
Flight time N/A
Altitude VFR
Route
Aircraft

Departure

Time N/A
Airport -

Arrival

Time 2026-04-29 00:14
Airport Merrill Field (PAMR)
Time Latitude Longitude Altitude Speed Heading
2026-04-28 23:51 61.07239 -149.76331 1675 ft 139 kts 350°
2026-04-28 23:51 61.08166 -149.76495 1585 ft 130 kts 352°
2026-04-28 23:52 61.09049 -149.76611 1523 ft 126 kts 354°
2026-04-28 23:52 61.09914 -149.76708 1469 ft 123 kts 354°
2026-04-28 23:52 61.10763 -149.76715 1393 ft 118 kts 358°
2026-04-28 23:52 61.11568 -149.76699 1325 ft 110 kts 358°
2026-04-28 23:53 61.12345 -149.76685 1204 ft 114 kts 356°
2026-04-28 23:53 61.13130 -149.76688 1132 ft 114 kts 355°
2026-04-28 23:53 61.13910 -149.76648 1119 ft 113 kts 359°
2026-04-28 23:53 61.14689 -149.76590 1128 ft 111 kts 360°
2026-04-28 23:54 61.15463 -149.76516 1116 ft 111 kts
2026-04-28 23:54 61.16235 -149.76411 1103 ft 112 kts
2026-04-28 23:54 61.17018 -149.76342 1088 ft 113 kts 359°
2026-04-28 23:54 61.17793 -149.76309 1091 ft 111 kts 358°
2026-04-28 23:55 61.18554 -149.76306 1090 ft 111 kts 357°
2026-04-28 23:55 61.19325 -149.76284 1074 ft 109 kts 359°
2026-04-28 23:55 61.20056 -149.76242 1006 ft 102 kts 356°
2026-04-28 23:55 61.20746 -149.76240 933 ft 96 kts 353°
2026-04-28 23:56 61.21353 -149.76664 897 ft 90 kts 313°
2026-04-28 23:56 61.21587 -149.77772 829 ft 83 kts 267°
2026-04-28 23:56 61.21604 -149.78958 715 ft 81 kts 266°
2026-04-28 23:56 61.21595 -149.80145 585 ft 83 kts 266°
2026-04-28 23:57 61.21584 -149.81264 405 ft 73 kts 269°
2026-04-28 23:57 61.21587 -149.82304 241 ft 70 kts 271°
2026-04-28 23:57 61.21587 -149.83280 135 ft 63 kts 273°
2026-04-28 23:57 61.21581 -149.84200 236 ft 73 kts 269°
2026-04-28 23:58 61.21590 -149.85369 426 ft 86 kts 275°
2026-04-28 23:58 61.21822 -149.86581 616 ft 98 kts 304°
2026-04-28 23:58 61.22279 -149.87808 647 ft 115 kts 306°
2026-04-28 23:58 61.22797 -149.89152 641 ft 122 kts 305°
2026-04-28 23:59 61.23343 -149.90502 631 ft 121 kts 309°
2026-04-28 23:59 61.23718 -149.91356 630 ft 121 kts 309°
2026-04-28 23:59 61.24276 -149.92669 628 ft 121 kts 308°
2026-04-28 23:59 61.24823 -149.94007 633 ft 121 kts 308°
2026-04-29 00:00 61.25348 -149.95364 628 ft 121 kts 306°
2026-04-29 00:00 61.25917 -149.96715 640 ft 128 kts 306°
2026-04-29 00:00 61.26535 -149.98072 641 ft 129 kts 306°
2026-04-29 00:00 61.27156 -149.99407 642 ft 129 kts 309°
2026-04-29 00:01 61.27760 -150.00757 637 ft 125 kts 307°
2026-04-29 00:01 61.28342 -150.02090 705 ft 118 kts 305°
2026-04-29 00:01 61.28872 -150.03228 983 ft 104 kts 321°
2026-04-29 00:01 61.29598 -150.03681 1031 ft 118 kts 347°
2026-04-29 00:02 61.30397 -150.04208 1037 ft 124 kts 325°
2026-04-29 00:02 61.30896 -150.05589 1025 ft 121 kts 283°
2026-04-29 00:02 61.30832 -150.07262 999 ft 115 kts 238°
2026-04-29 00:02 61.30264 -150.08299 1008 ft 110 kts 199°
2026-04-29 00:03 61.29522 -150.08219 1013 ft 111 kts 159°
2026-04-29 00:03 61.28972 -150.07087 1016 ft 117 kts 120°
2026-04-29 00:03 61.28897 -150.05397 1015 ft 122 kts 81°
2026-04-29 00:03 61.29354 -150.03889 1016 ft 128 kts 40°
2026-04-29 00:04 61.30182 -150.03198 1016 ft 130 kts
2026-04-29 00:04 61.31039 -150.03625 1019 ft 129 kts 324°
2026-04-29 00:04 61.31607 -150.04980 1019 ft 123 kts 288°
2026-04-29 00:04 61.31685 -150.06669 1020 ft 116 kts 251°
2026-04-29 00:05 61.31256 -150.08004 1019 ft 111 kts 213°
2026-04-29 00:05 61.30531 -150.08445 1017 ft 110 kts 178°
2026-04-29 00:05 61.29841 -150.07802 1014 ft 112 kts 140°
2026-04-29 00:05 61.29499 -150.06335 1014 ft 118 kts 101°
2026-04-29 00:06 61.29690 -150.04666 1014 ft 125 kts 59°
2026-04-29 00:06 61.30375 -150.03557 1016 ft 129 kts 20°
2026-04-29 00:06 61.31265 -150.03446 1018 ft 129 kts 345°
2026-04-29 00:06 61.32031 -150.04321 1021 ft 127 kts 310°
2026-04-29 00:07 61.32390 -150.05920 1023 ft 121 kts 271°
2026-04-29 00:07 61.32224 -150.07563 1022 ft 115 kts 234°
2026-04-29 00:07 61.31619 -150.08529 1018 ft 111 kts 196°
2026-04-29 00:07 61.30875 -150.08380 1012 ft 112 kts 156°
2026-04-29 00:08 61.30257 -150.07386 1012 ft 115 kts 142°
2026-04-29 00:08 61.29670 -150.06254 1015 ft 114 kts 140°
2026-04-29 00:08 61.29091 -150.05110 1017 ft 114 kts 141°
2026-04-29 00:08 61.28514 -150.03941 1020 ft 116 kts 140°
2026-04-29 00:09 61.27941 -150.02763 1017 ft 115 kts 142°
2026-04-29 00:09 61.27315 -150.01743 1020 ft 115 kts 158°
2026-04-29 00:09 61.26588 -150.01071 1030 ft 113 kts 162°
2026-04-29 00:09 61.25859 -150.00436 1027 ft 115 kts 163°
2026-04-29 00:10 61.25118 -149.99826 1070 ft 116 kts 162°
2026-04-29 00:10 61.24371 -149.99178 1069 ft 116 kts 162°
2026-04-29 00:10 61.23632 -149.98537 1068 ft 117 kts 161°
2026-04-29 00:10 61.22884 -149.97858 1068 ft 118 kts 160°
2026-04-29 00:11 61.22135 -149.97224 1066 ft 115 kts 162°
2026-04-29 00:11 61.21392 -149.96578 1067 ft 116 kts 161°
2026-04-29 00:11 61.20002 -149.95307 1062 ft 98 kts 162°
2026-04-29 00:12 61.19387 -149.94762 1052 ft 94 kts 162°
2026-04-29 00:12 61.18765 -149.94341 989 ft 91 kts 173°
2026-04-29 00:12 61.18163 -149.94155 850 ft 86 kts 180°
2026-04-29 00:12 61.17567 -149.94078 674 ft 86 kts 184°
2026-04-29 00:13 61.17007 -149.94317 453 ft 81 kts 220°
2026-04-29 00:13 61.16789 -149.95252 316 ft 70 kts 270°
2026-04-29 00:13 61.16792 -149.96246 255 ft 69 kts 270°
2026-04-29 00:13 61.16789 -149.97236 157 ft 68 kts 272°
2026-04-29 00:14 61.16788 -149.98139 114 ft 53 kts 271°
2026-04-29 00:14 61.16786 -149.98709 116 ft 29 kts 271°
2026-04-29 00:14 61.16786 -149.99039 119 ft 19 kts 269°
2026-04-29 00:14 61.16792 -149.99271 119 ft 15 kts 289°
2026-04-29 00:15 61.16878 -149.99367 117 ft 14 kts 344°
2026-04-29 00:15 61.16980 -149.99426 119 ft 19 kts 344°
2026-04-29 00:15 61.17125 -149.99507 119 ft 22 kts 345°
2026-04-29 00:15 61.17274 -149.99592 118 ft 22 kts 342°
2026-04-29 00:16 61.17396 -149.99657 116 ft 14 kts 345°
2026-04-29 00:16 61.17475 -149.99704 115 ft 13 kts 345°
2026-04-29 00:16 61.17602 -149.99782 114 ft 24 kts 343°
2026-04-29 00:16 61.17746 -149.99857 113 ft 19 kts 342°
2026-04-29 00:17 61.17875 -149.99927 111 ft 21 kts 343°
2026-04-29 00:17 61.17953 -149.99787 106 ft 19 kts 72°
2026-04-29 00:17 61.18004 -149.99496 98 ft 25 kts 70°
2026-04-29 00:17 61.18055 -149.99188 99 ft 21 kts 70°
2026-04-29 00:18 61.18051 -149.98918 99 ft 17 kts 101°
2026-04-29 00:18 61.18045 -149.98837 98 ft 7 kts 99°
2026-04-29 00:18 61.18026 -149.98617 97 ft 18 kts 100°
2026-04-29 00:18 61.18036 -149.98374 92 ft 17 kts 71°
2026-04-29 00:19 61.18073 -149.98165 96 ft 15 kts 70°
2026-04-29 00:19 61.18106 -149.97998 90 ft 6 kts 26°
2026-04-29 00:19 61.18179 -149.98026 91 ft 13 kts 354°
2026-04-29 00:19 61.18267 -149.98017 90 ft 12 kts 11°
2026-04-29 00:20 61.18347 -149.97964 91 ft 13 kts 32°
2026-04-29 00:20 61.18418 -149.97801 86 ft 16 kts 50°
2026-04-29 00:20 61.18487 -149.97601 84 ft 18 kts 59°
2026-04-29 00:20 61.18553 -149.97374 85 ft 19 kts 59°
2026-04-29 00:21 61.18631 -149.97166 82 ft 18 kts 42°
2026-04-29 00:21 61.18713 -149.97006 81 ft 15 kts 46°
2026-04-29 00:21 61.18769 -149.96848 79 ft 14 kts 74°
2026-04-29 00:21 61.18723 -149.96708 76 ft 15 kts 152°
2026-04-29 00:22 61.18649 -149.96633 80 ft 7 kts 154°
2026-04-29 00:22 61.18598 -149.96639 81 ft 8 kts 237°
2026-04-29 00:22 61.18580 -149.96698 81 ft 2 kts 238°
2026-04-29 00:22 61.18578 -149.96708 81 ft 2 kts 237°
2026-04-29 00:23 61.18537 -149.96813 82 ft 14 kts 224°
2026-04-29 00:23 61.18446 -149.96906 83 ft 16 kts 198°
2026-04-29 00:23 61.18355 -149.96955 83 ft 11 kts 192°
2026-04-29 00:23 61.18277 -149.96975 82 ft 11 kts 194°
2026-04-29 00:24 61.18203 -149.96993 82 ft 9 kts 170°
2026-04-29 00:24 61.18180 -149.96932 85 ft 6 kts 89°
2026-04-29 00:24 61.18174 -149.96924 84 ft 0 kts 237°
2026-04-29 00:24 61.18179 -149.96952 84 ft 4 kts 303°
2026-04-29 00:25 61.18184 -149.96967 84 ft 0 kts 306°